createdAt,value
2022-09-28T00:00:58.609Z,62.84
2022-09-28T00:03:31.933Z,60.41
2022-09-28T00:06:05.556Z,59.46
2022-09-28T00:08:39.358Z,58.87
2022-09-28T00:11:16.035Z,59.76
2022-09-28T00:14:06.549Z,61.24
2022-09-28T00:16:36.086Z,61.12
2022-09-28T00:19:10.835Z,60.30
2022-09-28T00:21:50.066Z,61.40
2022-09-28T00:24:27.914Z,61.57
2022-09-28T00:26:57.098Z,61.51
2022-09-28T00:29:28.455Z,60.51
2022-09-28T00:32:00.124Z,61.36
2022-09-28T00:34:32.101Z,61.18
2022-09-28T00:37:03.283Z,60.68
2022-09-28T00:39:38.811Z,59.69
2022-09-28T00:42:12.503Z,60.77
2022-09-28T00:44:42.167Z,60.00
2022-09-28T00:47:15.310Z,60.81
2022-09-28T00:49:44.825Z,62.00
2022-09-28T00:52:17.477Z,61.19
2022-09-28T00:54:48.530Z,61.84
2022-09-28T00:57:18.076Z,60.43
2022-09-28T00:59:46.937Z,59.59
2022-09-28T01:02:18.636Z,60.91
2022-09-28T01:04:47.408Z,61.73
2022-09-28T01:07:20.116Z,61.13
2022-09-28T01:09:51.565Z,61.68
2022-09-28T01:12:23.385Z,61.66
2022-09-28T01:14:52.384Z,61.43
2022-09-28T01:17:25.500Z,60.32
2022-09-28T01:20:12.925Z,58.46
2022-09-28T01:22:58.038Z,59.09
2022-09-28T01:25:32.807Z,58.67
2022-09-28T01:28:03.482Z,58.21
2022-09-28T01:30:39.173Z,59.59
2022-09-28T01:33:15.395Z,58.10
2022-09-28T01:35:45.310Z,58.21
2022-09-28T01:38:17.680Z,60.81
2022-09-28T01:40:47.803Z,61.28
2022-09-28T01:43:21.303Z,60.82
2022-09-28T01:45:58.456Z,60.40
2022-09-28T01:48:31.153Z,61.27
2022-09-28T01:51:01.735Z,61.55
2022-09-28T01:53:31.313Z,61.70
2022-09-28T01:56:03.410Z,60.67
2022-09-28T01:58:34.295Z,61.51
2022-09-28T02:01:05.113Z,61.81
2022-09-28T02:03:36.233Z,61.75
2022-09-28T02:06:07.205Z,62.22
2022-09-28T02:08:36.656Z,63.70
2022-09-28T02:11:07.428Z,62.12
2022-09-28T02:13:39.191Z,62.88
2022-09-28T02:16:10.565Z,61.69
2022-09-28T02:18:39.811Z,63.53
2022-09-28T02:21:12.334Z,62.55
2022-09-28T02:23:41.476Z,59.69
2022-09-28T02:26:11.163Z,59.45
2022-09-28T02:28:41.370Z,60.81
2022-09-28T02:31:13.214Z,60.89
2022-09-28T02:33:42.177Z,59.25
2022-09-28T02:36:14.882Z,61.38
2022-09-28T02:38:44.381Z,60.40
2022-09-28T02:41:26.883Z,61.06
2022-09-28T02:44:02.279Z,61.16
2022-09-28T02:46:38.320Z,61.51
2022-09-28T02:49:21.515Z,61.98
2022-09-28T02:51:54.237Z,62.59
2022-09-28T02:54:30.861Z,62.61
2022-09-28T02:57:07.087Z,62.28
2022-09-28T02:59:48.363Z,61.33
2022-09-28T03:02:20.877Z,61.68
2022-09-28T03:04:50.589Z,61.77
2022-09-28T03:07:30.006Z,62.54
2022-09-28T03:10:01.051Z,61.72
2022-09-28T03:12:33.338Z,60.91
2022-09-28T03:15:15.239Z,61.25
2022-09-28T03:17:44.274Z,60.17
2022-09-28T03:20:16.595Z,59.81
2022-09-28T03:22:55.989Z,60.31
2022-09-28T03:25:42.958Z,61.58
2022-09-28T03:28:12.302Z,62.20
2022-09-28T03:30:43.547Z,62.77
2022-09-28T03:33:12.494Z,62.52
2022-09-28T03:35:42.935Z,62.61
2022-09-28T03:38:11.934Z,62.22
2022-09-28T03:40:45.790Z,62.48
2022-09-28T03:43:15.546Z,62.34
2022-09-28T03:45:54.167Z,62.98
2022-09-28T03:48:31.377Z,63.00
2022-09-28T03:51:01.241Z,63.03
2022-09-28T03:53:30.698Z,62.96
2022-09-28T03:56:03.269Z,63.05
2022-09-28T03:58:35.313Z,63.06
2022-09-28T04:01:07.544Z,62.98
2022-09-28T04:03:40.611Z,61.56
2022-09-28T04:06:15.835Z,61.64
2022-09-28T04:08:47.950Z,60.10
2022-09-28T04:11:16.862Z,59.88
2022-09-28T04:13:49.132Z,59.58
2022-09-28T04:16:19.490Z,60.26
2022-09-28T04:18:50.274Z,61.08
2022-09-28T04:21:20.133Z,61.51
2022-09-28T04:23:50.117Z,61.74
2022-09-28T04:26:20.372Z,62.26
2022-09-28T04:29:06.993Z,61.14
2022-09-28T04:34:17.373Z,63.22
2022-09-28T04:36:49.117Z,63.26
2022-09-28T04:39:19.297Z,62.74
2022-09-28T04:41:48.857Z,61.89
2022-09-28T04:44:17.842Z,61.38
2022-09-28T04:46:50.739Z,60.53
2022-09-28T04:49:21.702Z,61.11
2022-09-28T04:51:51.386Z,61.47
2022-09-28T04:54:20.240Z,61.95
2022-09-28T04:56:56.471Z,61.84
2022-09-28T04:59:25.952Z,61.91
2022-09-28T05:01:56.774Z,61.97
2022-09-28T05:04:26.360Z,62.25
2022-09-28T05:06:55.978Z,63.04
2022-09-28T05:09:25.411Z,63.53
2022-09-28T05:11:56.227Z,63.49
2022-09-28T05:14:25.862Z,63.82
2022-09-28T05:16:58.575Z,63.41
2022-09-28T05:19:31.212Z,63.14
2022-09-28T05:22:04.071Z,63.49
2022-09-28T05:24:32.886Z,63.28
2022-09-28T05:27:05.227Z,64.08
2022-09-28T05:29:33.969Z,63.84
2022-09-28T05:32:08.935Z,63.75
2022-09-28T05:34:44.017Z,63.57
2022-09-28T05:37:13.560Z,63.26
2022-09-28T05:39:48.434Z,62.35
2022-09-28T05:42:17.466Z,63.21
2022-09-28T05:44:48.881Z,63.99
2022-09-28T05:47:19.819Z,63.88
2022-09-28T05:49:50.118Z,63.49
2022-09-28T05:52:18.898Z,63.25
2022-09-28T05:54:50.471Z,62.12
2022-09-28T05:57:19.236Z,61.30
2022-09-28T05:59:51.686Z,61.19
2022-09-28T06:02:21.859Z,60.45
2022-09-28T06:05:00.283Z,61.02
2022-09-28T06:07:42.101Z,60.76
2022-09-28T06:10:18.739Z,60.93
2022-09-28T06:12:48.709Z,60.40
2022-09-28T06:15:18.337Z,59.74
2022-09-28T06:18:02.731Z,59.07
2022-09-28T06:20:37.381Z,59.42
2022-09-28T06:23:15.178Z,58.81
2022-09-28T06:25:52.366Z,57.90
2022-09-28T06:28:44.251Z,58.18
2022-09-28T06:31:23.817Z,58.35
2022-09-28T06:34:01.903Z,56.49
2022-09-28T06:36:38.583Z,56.25
2022-09-28T06:39:18.752Z,57.79
2022-09-28T06:41:59.335Z,57.64
2022-09-28T06:44:44.039Z,57.50
2022-09-28T06:47:28.560Z,57.11
2022-09-28T06:50:14.667Z,56.76
2022-09-28T06:53:20.200Z,56.70
2022-09-28T06:56:32.747Z,55.64
2022-09-28T06:59:53.023Z,54.81
2022-09-28T07:02:59.937Z,55.69
2022-09-28T07:06:03.765Z,54.16
2022-09-28T07:08:55.731Z,54.58
2022-09-28T07:11:51.174Z,53.77
2022-09-28T07:14:46.792Z,54.03
2022-09-28T07:18:00.379Z,51.78
2022-09-28T07:20:53.682Z,53.53
2022-09-28T07:23:29.280Z,53.13
2022-09-28T07:26:22.571Z,53.24
2022-09-28T07:29:34.964Z,54.17
2022-09-28T07:35:40.688Z,55.32
2022-09-28T07:38:29.608Z,54.46
2022-09-28T07:41:35.458Z,53.28
2022-09-28T07:44:44.664Z,53.41
2022-09-28T07:47:33.921Z,53.93
2022-09-28T07:50:28.457Z,54.29
2022-09-28T07:53:36.081Z,55.99
2022-09-28T07:56:18.219Z,55.88
2022-09-28T07:59:06.065Z,56.69
2022-09-28T08:02:13.982Z,57.68
2022-09-28T08:05:11.537Z,58.19
2022-09-28T08:07:51.079Z,56.61
2022-09-28T08:10:47.185Z,55.89
2022-09-28T08:13:27.021Z,56.38
2022-09-28T08:16:23.717Z,55.77
2022-09-28T08:19:06.148Z,55.67
2022-09-28T08:21:51.714Z,55.85
2022-09-28T08:24:56.669Z,56.51
2022-09-28T08:27:41.483Z,56.40
2022-09-28T08:30:24.600Z,55.48
2022-09-28T08:33:04.127Z,56.90
2022-09-28T08:35:40.238Z,55.68
2022-09-28T08:38:14.069Z,55.90
2022-09-28T08:41:01.565Z,55.54
2022-09-28T08:43:44.853Z,56.05
2022-09-28T08:46:14.333Z,56.26
2022-09-28T08:49:20.420Z,56.68
2022-09-28T08:51:54.961Z,55.57
2022-09-28T08:54:34.478Z,54.90
2022-09-28T08:57:16.449Z,56.22
2022-09-28T09:00:01.566Z,56.08
2022-09-28T09:02:44.488Z,56.29
2022-09-28T09:05:31.331Z,57.09
2022-09-28T09:08:09.588Z,54.72
2022-09-28T09:10:58.169Z,56.06
2022-09-28T09:13:57.129Z,54.04
2022-09-28T09:16:39.695Z,53.80
2022-09-28T09:19:20.545Z,54.65
2022-09-28T09:22:08.791Z,54.56
2022-09-28T09:25:03.246Z,53.76
2022-09-28T09:27:51.067Z,54.32
2022-09-28T09:30:33.192Z,52.33
2022-09-28T09:33:36.796Z,52.46
2022-09-28T09:36:20.799Z,52.50
2022-09-28T09:39:10.438Z,51.90
2022-09-28T09:42:38.812Z,52.92
2022-09-28T09:45:39.931Z,52.50
2022-09-28T09:48:43.677Z,53.05
2022-09-28T09:51:29.549Z,52.80
2022-09-28T09:54:12.988Z,54.42
2022-09-28T09:57:01.467Z,52.73
2022-09-28T10:00:17.122Z,52.67
2022-09-28T10:03:12.439Z,53.31
2022-09-28T10:06:11.967Z,52.17
2022-09-28T10:09:16.936Z,51.51
2022-09-28T10:12:01.538Z,52.64
2022-09-28T10:18:00.077Z,51.87
2022-09-28T10:20:46.396Z,50.36
2022-09-28T10:23:27.267Z,50.75
2022-09-28T10:26:10.529Z,50.94
2022-09-28T10:28:53.768Z,51.34
2022-09-28T10:31:42.998Z,50.90
2022-09-28T10:34:48.756Z,49.64
2022-09-28T10:37:49.432Z,49.03
2022-09-28T10:40:30.579Z,50.50
2022-09-28T10:43:33.228Z,51.35
2022-09-28T10:46:18.704Z,51.83
2022-09-28T10:49:02.759Z,50.91
2022-09-28T10:51:41.017Z,49.77
2022-09-28T10:57:34.493Z,48.80
2022-09-28T11:00:41.535Z,49.24
2022-09-28T11:03:38.603Z,48.65
2022-09-28T11:06:22.525Z,49.52
2022-09-28T11:09:40.896Z,50.61
2022-09-28T11:12:22.539Z,51.13
2022-09-28T11:15:25.275Z,48.83
2022-09-28T11:18:23.211Z,48.01
2022-09-28T11:21:21.627Z,46.40
2022-09-28T11:24:09.505Z,48.46
2022-09-28T11:26:56.804Z,47.95
2022-09-28T11:29:48.383Z,47.68
2022-09-28T11:32:40.857Z,48.44
2022-09-28T11:35:25.801Z,46.71
2022-09-28T11:38:11.936Z,46.63
2022-09-28T11:41:16.347Z,45.76
2022-09-28T11:44:09.959Z,46.37
2022-09-28T11:47:01.226Z,46.96
2022-09-28T11:49:56.058Z,46.09
2022-09-28T11:53:00.726Z,46.97
2022-09-28T11:55:51.632Z,46.54
2022-09-28T11:58:38.730Z,45.89
2022-09-28T12:01:30.597Z,47.06
2022-09-28T12:04:39.555Z,47.86
2022-09-28T12:07:45.313Z,44.82
2022-09-28T12:10:26.454Z,45.78
2022-09-28T12:12:57.843Z,46.55
2022-09-28T12:18:55.451Z,44.32
2022-09-28T12:21:48.204Z,44.97
2022-09-28T12:24:38.054Z,45.27
2022-09-28T12:27:43.021Z,45.91
2022-09-28T12:30:35.860Z,46.84
2022-09-28T12:33:25.309Z,44.86
2022-09-28T12:36:28.984Z,45.06
2022-09-28T12:42:11.247Z,45.24
2022-09-28T12:44:58.623Z,45.40
2022-09-28T12:48:15.937Z,46.09
2022-09-28T12:51:07.652Z,45.92
2022-09-28T12:54:15.082Z,45.42
2022-09-28T12:56:56.588Z,46.34
2022-09-28T12:59:47.378Z,46.56
2022-09-28T13:02:40.856Z,46.37
2022-09-28T13:05:26.732Z,46.66
2022-09-28T13:08:31.960Z,46.47
2022-09-28T13:11:23.453Z,46.77
2022-09-28T13:14:25.879Z,46.55
2022-09-28T13:17:05.458Z,45.35
2022-09-28T13:20:13.014Z,45.47
2022-09-28T13:26:24.711Z,45.10
2022-09-28T13:29:28.991Z,44.87
2022-09-28T13:32:14.379Z,44.44
2022-09-28T13:35:07.295Z,45.20
2022-09-28T13:37:47.020Z,44.79
2022-09-28T13:40:17.592Z,45.77
2022-09-28T13:42:58.939Z,44.88
2022-09-28T13:45:58.847Z,45.80
2022-09-28T13:48:44.053Z,42.87
2022-09-28T13:51:18.670Z,43.54
2022-09-28T13:54:16.021Z,42.43
2022-09-28T13:56:59.652Z,43.33
2022-09-28T13:59:35.569Z,43.59
2022-09-28T14:02:13.272Z,44.13
2022-09-28T14:04:55.226Z,43.92
2022-09-28T14:07:34.690Z,43.44
2022-09-28T14:10:21.304Z,42.13
2022-09-28T14:13:08.042Z,42.86
2022-09-28T14:15:49.132Z,42.62
2022-09-28T14:18:32.842Z,42.56
2022-09-28T14:21:29.233Z,43.25
2022-09-28T14:24:11.349Z,44.13
2022-09-28T14:27:14.990Z,44.36
2022-09-28T14:29:59.208Z,44.43
2022-09-28T14:32:41.487Z,45.08
2022-09-28T14:35:28.245Z,45.89
2022-09-28T14:38:25.062Z,46.19
2022-09-28T14:41:15.090Z,46.17
2022-09-28T14:44:00.781Z,45.50
2022-09-28T14:46:40.630Z,45.67
2022-09-28T14:49:29.170Z,45.60
2022-09-28T14:52:06.057Z,46.23
2022-09-28T14:54:51.879Z,47.58
2022-09-28T14:57:22.174Z,46.77
2022-09-28T14:59:50.994Z,47.63
2022-09-28T15:02:24.524Z,47.95
2022-09-28T15:04:54.373Z,47.76
2022-09-28T15:07:25.655Z,48.29
2022-09-28T15:09:54.815Z,48.80
2022-09-28T15:12:27.569Z,49.40
2022-09-28T15:14:56.699Z,48.92
2022-09-28T15:17:29.323Z,48.85
2022-09-28T15:20:13.300Z,48.66
2022-09-28T15:22:50.340Z,48.95
2022-09-28T15:25:20.883Z,49.00
2022-09-28T15:27:52.973Z,48.31
2022-09-28T15:30:24.255Z,48.36
2022-09-28T15:32:57.023Z,49.35
2022-09-28T15:35:26.370Z,48.47
2022-09-28T15:37:58.784Z,47.76
2022-09-28T15:40:30.052Z,48.75
2022-09-28T15:43:02.538Z,50.00
2022-09-28T15:45:34.785Z,48.54
2022-09-28T15:48:22.025Z,50.47
2022-09-28T15:50:57.234Z,50.55
2022-09-28T15:53:27.708Z,49.31
2022-09-28T15:56:06.134Z,50.51
2022-09-28T15:58:34.517Z,51.34
2022-09-28T16:01:20.905Z,51.71
2022-09-28T16:03:50.884Z,51.98
2022-09-28T16:06:19.298Z,51.18
2022-09-28T16:08:51.363Z,52.13
2022-09-28T16:11:22.685Z,52.11
2022-09-28T16:14:19.986Z,53.06
2022-09-28T16:16:49.421Z,53.51
2022-09-28T16:19:23.676Z,53.13
2022-09-28T16:21:59.990Z,52.64
2022-09-28T16:24:32.895Z,52.93
2022-09-28T16:27:07.595Z,52.79
2022-09-28T16:29:42.991Z,53.02
2022-09-28T16:32:31.468Z,53.70
2022-09-28T16:35:08.999Z,54.35
2022-09-28T16:37:37.684Z,54.33
2022-09-28T16:40:09.434Z,54.16
2022-09-28T16:42:38.547Z,54.46
2022-09-28T16:45:12.057Z,54.90
2022-09-28T16:47:41.597Z,54.89
2022-09-28T16:50:15.281Z,54.74
2022-09-28T16:53:03.445Z,55.08
2022-09-28T16:55:40.522Z,54.89
2022-09-28T16:58:09.941Z,55.43
2022-09-28T17:00:45.788Z,55.60
2022-09-28T17:03:21.082Z,54.89
2022-09-28T17:05:49.807Z,53.66
2022-09-28T17:08:22.246Z,54.70
2022-09-28T17:13:45.915Z,55.08
2022-09-28T17:16:15.752Z,55.97
2022-09-28T17:18:48.693Z,55.99
2022-09-28T17:21:20.486Z,56.87
2022-09-28T17:24:01.942Z,57.01
2022-09-28T17:26:33.553Z,57.46
2022-09-28T17:29:02.771Z,57.98
2022-09-28T17:31:34.513Z,58.35
2022-09-28T17:34:07.532Z,58.84
2022-09-28T17:36:48.102Z,59.09
2022-09-28T17:39:46.844Z,59.80
2022-09-28T17:42:22.664Z,60.20
2022-09-28T17:44:51.078Z,60.78
2022-09-28T17:47:23.822Z,60.87
2022-09-28T17:49:53.836Z,61.39
2022-09-28T17:52:25.646Z,62.30
2022-09-28T17:54:54.170Z,62.65
2022-09-28T17:57:27.036Z,63.33
2022-09-28T17:59:55.479Z,63.46
2022-09-28T18:02:30.034Z,63.88
2022-09-28T18:04:59.092Z,63.88
2022-09-28T18:07:31.375Z,64.72
2022-09-28T18:10:03.252Z,64.51
2022-09-28T18:12:34.327Z,65.78
2022-09-28T18:15:03.120Z,65.37
2022-09-28T18:17:32.294Z,65.77
2022-09-28T18:20:00.813Z,65.95
2022-09-28T18:22:32.780Z,66.73
2022-09-28T18:25:01.220Z,66.74
2022-09-28T18:27:31.562Z,66.78
2022-09-28T18:30:02.340Z,66.62
2022-09-28T18:32:38.580Z,67.50
2022-09-28T18:35:07.787Z,67.59
2022-09-28T18:37:37.434Z,67.90
2022-09-28T18:40:06.452Z,67.78
2022-09-28T18:42:38.892Z,67.47
2022-09-28T18:45:11.303Z,67.74
2022-09-28T18:47:42.120Z,68.32
2022-09-28T18:50:12.994Z,68.29
2022-09-28T18:52:42.553Z,68.14
2022-09-28T18:55:11.689Z,68.64
2022-09-28T18:57:44.294Z,69.04
2022-09-28T19:00:16.109Z,69.12
2022-09-28T19:02:48.150Z,69.21
2022-09-28T19:05:16.933Z,69.64
2022-09-28T19:07:45.267Z,70.09
2022-09-28T19:10:13.698Z,70.76
2022-09-28T19:12:52.654Z,70.03
2022-09-28T19:15:29.961Z,70.40
2022-09-28T19:18:12.362Z,70.63
2022-09-28T19:20:42.499Z,70.89
2022-09-28T19:23:14.136Z,70.76
2022-09-28T19:25:46.273Z,70.91
2022-09-28T19:28:25.464Z,70.48
2022-09-28T19:30:58.968Z,70.54
2022-09-28T19:33:29.557Z,70.69
2022-09-28T19:35:59.128Z,70.82
2022-09-28T19:38:29.823Z,71.58
2022-09-28T19:41:01.742Z,70.70
2022-09-28T19:43:31.207Z,70.78
2022-09-28T19:46:04.463Z,70.90
2022-09-28T19:48:34.974Z,71.53
2022-09-28T19:51:24.903Z,71.15
2022-09-28T19:53:54.033Z,71.07
2022-09-28T19:56:48.921Z,70.67
2022-09-28T20:00:51.245Z,71.02
2022-09-28T20:07:28.755Z,70.60
2022-09-28T20:11:17.085Z,71.40
2022-09-28T20:20:24.807Z,71.68
2022-09-28T20:23:09.297Z,71.48
2022-09-28T20:25:53.172Z,72.11
2022-09-28T20:28:34.256Z,71.63
2022-09-28T20:31:39.808Z,72.19
2022-09-28T22:01:08.072Z,71.07
